Time;durP1;ratioP1;P1;durP2;ratioP2;P2;SDS_P1;SDS_P2;PMS_P1;PMS_P2;Temp;Humidity;BMP_temperature;BMP_pressure;BME280_temperature;BME280_humidity;BME280_pressure;Samples;Min_cycle;Max_cycle;Signal;HPM_P1;HPM_P2
2021/09/18 00:01:13;;;;;;;5.57;4.78;;;;;;;;;;5034839;28;20025;-57
2021/09/18 00:03:38;;;;;;;5.18;4.05;;;;;;;;;;5034910;28;20462;-58
2021/09/18 00:06:04;;;;;;;5.03;4.18;;;;;;;;;;5034701;28;20080;-57
2021/09/18 00:08:29;;;;;;;6.05;4.10;;;;;;;;;;5036808;28;20502;-59
2021/09/18 00:10:54;;;;;;;4.82;4.15;;;;;;;;;;5035934;28;20116;-57
2021/09/18 00:13:19;;;;;;;4.47;4.07;;;;;;;;;;5036436;28;20036;-59
2021/09/18 00:15:45;;;;;;;6.28;4.32;;;;;;;;;;5037395;28;20021;-58
2021/09/18 00:18:10;;;;;;;4.75;4.18;;;;;;;;;;5037402;28;20140;-57
2021/09/18 00:20:35;;;;;;;5.00;4.60;;;;;;;;;;5035911;28;20044;-54
2021/09/18 00:23:00;;;;;;;4.93;4.10;;;;;;;;;;5038616;28;21040;-56
2021/09/18 00:25:26;;;;;;;5.38;4.70;;;;;;;;;;5035526;28;20032;-58
2021/09/18 00:27:51;;;;;;;5.40;4.70;;;;;;;;;;5034917;28;20500;-60
2021/09/18 00:30:17;;;;;;;5.47;4.82;;;;;;;;;;5034886;28;20043;-57
2021/09/18 00:32:42;;;;;;;6.05;4.43;;;;;;;;;;5036017;28;20791;-58
2021/09/18 00:35:07;;;;;;;5.63;5.03;;;;;;;;;;5035324;28;20049;-58
2021/09/18 00:37:33;;;;;;;4.97;4.50;;;;;;;;;;5034922;28;20078;-57
2021/09/18 00:39:58;;;;;;;5.97;5.47;;;;;;;;;;5037681;28;20118;-57
2021/09/18 00:42:23;;;;;;;4.70;4.30;;;;;;;;;;5037236;28;20021;-57
2021/09/18 00:44:50;;;;;;;6.25;4.43;;;;;;;;;;5036117;28;20032;-57
2021/09/18 00:47:15;;;;;;;4.57;3.95;;;;;;;;;;5035312;28;20017;-57
2021/09/18 00:49:41;;;;;;;5.38;4.05;;;;;;;;;;5035893;28;20013;-55
2021/09/18 00:52:06;;;;;;;5.60;4.28;;;;;;;;;;5033426;28;20167;-55
2021/09/18 00:54:31;;;;;;;6.25;4.75;;;;;;;;;;5034019;28;20490;-54
2021/09/18 00:56:58;;;;;;;6.28;4.80;;;;;;;;;;5036290;28;20018;-58
2021/09/18 00:59:23;;;;;;;6.10;4.32;;;;;;;;;;5042372;28;20026;-59
2021/09/18 01:01:48;;;;;;;5.45;4.65;;;;;;;;;;5037115;28;20531;-58
2021/09/18 01:04:14;;;;;;;4.75;4.35;;;;;;;;;;5035973;28;20044;-59
2021/09/18 01:06:39;;;;;;;5.95;4.70;;;;;;;;;;5034469;28;20017;-55
2021/09/18 01:09:05;;;;;;;5.65;4.85;;;;;;;;;;5037458;28;20025;-57
2021/09/18 01:11:30;;;;;;;5.07;4.57;;;;;;;;;;5032188;28;20025;-58
2021/09/18 01:13:55;;;;;;;4.85;4.45;;;;;;;;;;5035542;28;20025;-57
2021/09/18 01:16:21;;;;;;;4.68;4.22;;;;;;;;;;5036035;28;20017;-56
2021/09/18 01:18:47;;;;;;;4.80;4.38;;;;;;;;;;5034221;28;20454;-57
2021/09/18 01:21:12;;;;;;;4.93;4.30;;;;;;;;;;5031998;28;20108;-57
2021/09/18 01:23:37;;;;;;;17.67;5.78;;;;;;;;;;5034009;28;20021;-59
2021/09/18 01:26:03;;;;;;;6.30;4.45;;;;;;;;;;5034213;28;20043;-58
2021/09/18 01:28:28;;;;;;;4.95;4.55;;;;;;;;;;5035927;28;20830;-58
2021/09/18 01:30:53;;;;;;;5.78;4.88;;;;;;;;;;5031407;28;20025;-59
2021/09/18 01:33:19;;;;;;;5.63;4.75;;;;;;;;;;5035323;28;20024;-56
2021/09/18 01:35:44;;;;;;;5.28;4.53;;;;;;;;;;5034469;28;20061;-59
2021/09/18 01:38:09;;;;;;;5.03;4.53;;;;;;;;;;5035282;28;20401;-60
2021/09/18 01:40:37;;;;;;;5.25;4.72;;;;;;;;;;5035756;28;20033;-57
2021/09/18 01:43:03;;;;;;;6.40;4.40;;;;;;;;;;5034177;28;20540;-58
2021/09/18 01:45:28;;;;;;;5.40;4.90;;;;;;;;;;5033064;28;20021;-57
2021/09/18 01:47:55;;;;;;;7.95;5.20;;;;;;;;;;5031720;28;20029;-58
2021/09/18 01:50:21;;;;;;;5.20;4.70;;;;;;;;;;5036784;28;20028;-59
2021/09/18 01:52:49;;;;;;;5.25;4.78;;;;;;;;;;5033224;28;20025;-59
2021/09/18 01:55:15;;;;;;;5.07;4.35;;;;;;;;;;5034684;28;20128;-57
2021/09/18 01:57:51;;;;;;;4.70;4.30;;;;;;;;;;5033197;28;20025;-58
2021/09/18 02:00:16;;;;;;;5.57;4.78;;;;;;;;;;5032097;28;20025;-58
2021/09/18 02:02:42;;;;;;;6.50;3.95;;;;;;;;;;5035850;28;20098;-56
2021/09/18 02:05:07;;;;;;;6.47;5.10;;;;;;;;;;5032016;28;20021;-56
2021/09/18 02:07:33;;;;;;;4.18;3.78;;;;;;;;;;5033717;28;20029;-58
2021/09/18 02:09:58;;;;;;;5.72;4.13;;;;;;;;;;5032437;28;20032;-58
2021/09/18 02:12:23;;;;;;;4.75;4.05;;;;;;;;;;5033814;28;20350;-59
2021/09/18 02:14:48;;;;;;;5.43;4.80;;;;;;;;;;5035212;28;20021;-57
2021/09/18 02:17:14;;;;;;;6.28;4.53;;;;;;;;;;5033681;28;20028;-59
2021/09/18 02:19:39;;;;;;;5.97;4.38;;;;;;;;;;5034388;28;20128;-55
2021/09/18 02:22:04;;;;;;;4.05;3.75;;;;;;;;;;5033885;28;20461;-58
2021/09/18 02:24:30;;;;;;;4.85;4.43;;;;;;;;;;5033115;28;20025;-57
2021/09/18 02:26:55;;;;;;;6.70;4.90;;;;;;;;;;5033642;28;20075;-57
2021/09/18 02:29:20;;;;;;;5.00;4.50;;;;;;;;;;5032659;28;20036;-57
2021/09/18 02:31:45;;;;;;;4.20;3.80;;;;;;;;;;5033410;28;20017;-57
2021/09/18 02:34:10;;;;;;;4.75;4.20;;;;;;;;;;5033404;28;20441;-58
2021/09/18 02:36:36;;;;;;;5.38;4.82;;;;;;;;;;5035003;28;20123;-59
2021/09/18 02:39:01;;;;;;;4.78;4.38;;;;;;;;;;5033055;28;20014;-58
2021/09/18 02:41:26;;;;;;;6.28;4.80;;;;;;;;;;5031544;28;20034;-58
2021/09/18 02:43:51;;;;;;;6.10;5.13;;;;;;;;;;5034567;28;20032;-60
2021/09/18 02:46:17;;;;;;;5.57;4.72;;;;;;;;;;5034821;28;20489;-57
2021/09/18 02:48:42;;;;;;;6.32;4.70;;;;;;;;;;5032249;28;20064;-58
2021/09/18 02:51:07;;;;;;;6.93;5.15;;;;;;;;;;5032705;28;20025;-59
2021/09/18 02:53:32;;;;;;;5.07;4.68;;;;;;;;;;5034652;28;20070;-56
2021/09/18 02:55:59;;;;;;;5.30;4.90;;;;;;;;;;5031965;28;20056;-57
2021/09/18 02:58:24;;;;;;;6.75;4.47;;;;;;;;;;5032133;28;20104;-58
2021/09/18 03:00:50;;;;;;;5.60;5.05;;;;;;;;;;5030422;28;20063;-60
2021/09/18 03:03:15;;;;;;;7.00;4.70;;;;;;;;;;5033559;28;20016;-59
2021/09/18 03:05:40;;;;;;;7.72;5.68;;;;;;;;;;5032157;28;20472;-60
2021/09/18 03:08:05;;;;;;;5.43;4.22;;;;;;;;;;5033724;28;20466;-57
2021/09/18 03:10:31;;;;;;;6.28;4.57;;;;;;;;;;5034031;28;20064;-59
2021/09/18 03:12:56;;;;;;;5.53;4.88;;;;;;;;;;5034504;28;20025;-60
2021/09/18 03:15:21;;;;;;;7.70;4.82;;;;;;;;;;5033436;28;20791;-60
2021/09/18 03:17:46;;;;;;;7.18;5.22;;;;;;;;;;5031834;28;20048;-60
2021/09/18 03:20:12;;;;;;;6.10;4.70;;;;;;;;;;5031317;28;20032;-58
2021/09/18 03:22:37;;;;;;;4.50;4.10;;;;;;;;;;5031924;28;20083;-60
2021/09/18 03:25:03;;;;;;;6.25;4.70;;;;;;;;;;5029777;28;20025;-60
2021/09/18 03:27:29;;;;;;;4.65;4.25;;;;;;;;;;5032667;28;20029;-58
2021/09/18 03:29:54;;;;;;;8.10;5.65;;;;;;;;;;5033531;28;20083;-58
2021/09/18 03:32:19;;;;;;;4.95;4.55;;;;;;;;;;5032766;28;20021;-58
2021/09/18 03:34:44;;;;;;;9.88;5.68;;;;;;;;;;5034880;28;20036;-56
2021/09/18 03:37:10;;;;;;;4.60;4.20;;;;;;;;;;5037558;28;20092;-59
2021/09/18 03:39:35;;;;;;;6.22;5.65;;;;;;;;;;5038362;28;20095;-60
2021/09/18 03:42:00;;;;;;;6.30;4.82;;;;;;;;;;5037100;28;20044;-57
2021/09/18 03:44:25;;;;;;;5.03;4.63;;;;;;;;;;5037241;28;20025;-56
2021/09/18 03:46:51;;;;;;;5.60;5.05;;;;;;;;;;5035040;28;20013;-56
2021/09/18 03:49:16;;;;;;;5.03;4.55;;;;;;;;;;5036306;28;20102;-58
2021/09/18 03:51:41;;;;;;;4.72;4.25;;;;;;;;;;5036928;28;20026;-56
2021/09/18 03:54:06;;;;;;;5.93;4.88;;;;;;;;;;5037703;28;20025;-59
2021/09/18 03:56:32;;;;;;;5.03;4.28;;;;;;;;;;5037696;28;20021;-59
2021/09/18 03:58:57;;;;;;;5.00;4.18;;;;;;;;;;5036248;28;20030;-59
2021/09/18 04:01:22;;;;;;;4.78;4.35;;;;;;;;;;5035347;28;20036;-56
2021/09/18 04:03:47;;;;;;;6.35;4.78;;;;;;;;;;5034892;28;20021;-56
2021/09/18 04:06:13;;;;;;;4.53;4.13;;;;;;;;;;5035169;28;20434;-57
2021/09/18 04:08:38;;;;;;;6.60;4.75;;;;;;;;;;5036945;28;20036;-57
2021/09/18 04:11:03;;;;;;;5.50;5.00;;;;;;;;;;5035331;28;20013;-53
2021/09/18 04:13:29;;;;;;;4.80;4.40;;;;;;;;;;5035137;28;20169;-55
2021/09/18 04:15:54;;;;;;;5.25;4.47;;;;;;;;;;5037284;28;23283;-57
2021/09/18 04:18:19;;;;;;;5.55;4.60;;;;;;;;;;5034668;28;20040;-58
2021/09/18 04:20:44;;;;;;;6.68;5.45;;;;;;;;;;5036396;28;20025;-60
2021/09/18 04:23:10;;;;;;;5.82;4.60;;;;;;;;;;5035760;28;20401;-59
2021/09/18 04:25:35;;;;;;;5.82;5.13;;;;;;;;;;5034384;28;20013;-60
2021/09/18 04:28:00;;;;;;;5.07;4.57;;;;;;;;;;5034599;28;20081;-59
2021/09/18 04:30:26;;;;;;;7.03;5.18;;;;;;;;;;5036867;28;20136;-59
2021/09/18 04:32:51;;;;;;;6.03;4.80;;;;;;;;;;5034465;28;20030;-57
2021/09/18 04:35:16;;;;;;;5.00;4.32;;;;;;;;;;5034811;28;20105;-58
2021/09/18 04:37:41;;;;;;;6.85;4.28;;;;;;;;;;5035880;28;20055;-57
2021/09/18 04:40:07;;;;;;;4.95;4.55;;;;;;;;;;5036831;28;20377;-59
2021/09/18 04:42:33;;;;;;;8.63;4.30;;;;;;;;;;5035763;28;20099;-55
2021/09/18 04:44:58;;;;;;;9.75;4.88;;;;;;;;;;5036547;28;20465;-56
2021/09/18 04:47:23;;;;;;;5.28;4.53;;;;;;;;;;5037497;28;20507;-57
2021/09/18 04:49:49;;;;;;;5.45;4.20;;;;;;;;;;5034804;28;20029;-59
2021/09/18 04:52:14;;;;;;;5.35;4.55;;;;;;;;;;5035191;28;20624;-57
2021/09/18 04:54:39;;;;;;;5.03;4.45;;;;;;;;;;5035798;28;20020;-56
2021/09/18 04:57:04;;;;;;;4.70;4.30;;;;;;;;;;5034695;28;20021;-58
2021/09/18 04:59:30;;;;;;;5.30;4.85;;;;;;;;;;5035803;28;20068;-57
2021/09/18 05:01:55;;;;;;;5.05;4.55;;;;;;;;;;5035734;28;20492;-59
2021/09/18 05:04:20;;;;;;;5.38;4.88;;;;;;;;;;5035356;28;20025;-57
2021/09/18 05:06:45;;;;;;;4.55;4.15;;;;;;;;;;5034886;28;20037;-58
2021/09/18 05:09:11;;;;;;;5.45;4.95;;;;;;;;;;5036145;28;20079;-56
2021/09/18 05:11:36;;;;;;;4.47;4.10;;;;;;;;;;5037639;28;20074;-55
2021/09/18 05:14:01;;;;;;;4.93;4.38;;;;;;;;;;5037946;28;20144;-58
2021/09/18 05:16:26;;;;;;;4.97;4.55;;;;;;;;;;5034077;28;20024;-57
2021/09/18 05:18:52;;;;;;;5.35;4.53;;;;;;;;;;5035221;28;20033;-57
2021/09/18 05:21:17;;;;;;;6.78;4.57;;;;;;;;;;5033997;28;20029;-57
2021/09/18 05:23:42;;;;;;;5.53;4.93;;;;;;;;;;5037312;28;20428;-56
2021/09/18 05:26:08;;;;;;;5.05;4.55;;;;;;;;;;5034948;28;20029;-59
2021/09/18 05:28:33;;;;;;;5.00;4.60;;;;;;;;;;5038209;28;20074;-57
2021/09/18 05:30:58;;;;;;;4.88;4.47;;;;;;;;;;5033787;28;20064;-57
2021/09/18 05:33:23;;;;;;;6.78;4.47;;;;;;;;;;5034506;28;20020;-57
2021/09/18 05:35:49;;;;;;;7.03;4.28;;;;;;;;;;5033974;28;20049;-59
2021/09/18 05:38:14;;;;;;;5.57;4.55;;;;;;;;;;5034015;28;20083;-57
2021/09/18 05:40:39;;;;;;;5.60;4.70;;;;;;;;;;5036796;28;20502;-57
2021/09/18 05:43:05;;;;;;;5.22;4.45;;;;;;;;;;5034727;28;20463;-55
2021/09/18 05:45:30;;;;;;;5.35;4.80;;;;;;;;;;5035025;28;20025;-56
2021/09/18 05:47:55;;;;;;;7.03;5.35;;;;;;;;;;5033099;28;20058;-57
2021/09/18 05:50:20;;;;;;;4.82;4.38;;;;;;;;;;5034414;28;20710;-57
2021/09/18 05:52:46;;;;;;;4.50;4.10;;;;;;;;;;5033154;28;20024;-57
2021/09/18 05:55:11;;;;;;;5.22;4.72;;;;;;;;;;5033761;28;20039;-58
2021/09/18 05:57:36;;;;;;;5.05;4.55;;;;;;;;;;5032439;28;20029;-57
2021/09/18 06:00:02;;;;;;;6.25;5.28;;;;;;;;;;5034130;28;20033;-58
2021/09/18 06:02:27;;;;;;;4.53;4.10;;;;;;;;;;5034604;28;20060;-55
2021/09/18 06:04:54;;;;;;;5.18;4.60;;;;;;;;;;5035522;28;20025;-57
2021/09/18 06:07:19;;;;;;;5.45;4.93;;;;;;;;;;5033746;28;20040;-58
2021/09/18 06:09:44;;;;;;;5.30;4.55;;;;;;;;;;5034975;28;20054;-58
2021/09/18 06:12:09;;;;;;;4.47;4.07;;;;;;;;;;5033697;28;20025;-58
2021/09/18 06:14:35;;;;;;;5.18;4.18;;;;;;;;;;5035640;28;20588;-58
2021/09/18 06:17:00;;;;;;;4.85;4.45;;;;;;;;;;5032954;28;20044;-59
2021/09/18 06:19:26;;;;;;;5.10;4.70;;;;;;;;;;5034242;28;20435;-58
2021/09/18 06:21:51;;;;;;;6.10;5.22;;;;;;;;;;5032765;28;20021;-57
2021/09/18 06:24:16;;;;;;;5.43;4.90;;;;;;;;;;5035559;28;20068;-55
2021/09/18 06:26:42;;;;;;;5.82;5.40;;;;;;;;;;5033031;28;20024;-58
2021/09/18 06:29:08;;;;;;;5.85;5.25;;;;;;;;;;5032883;28;20476;-57
2021/09/18 06:31:33;;;;;;;5.35;4.90;;;;;;;;;;5033833;28;20915;-57
2021/09/18 06:33:58;;;;;;;6.22;5.40;;;;;;;;;;5034266;28;20061;-57
2021/09/18 06:36:23;;;;;;;8.88;6.10;;;;;;;;;;5034312;28;20063;-58
2021/09/18 06:38:49;;;;;;;7.10;6.22;;;;;;;;;;5034738;28;20031;-55
2021/09/18 06:41:14;;;;;;;7.07;5.18;;;;;;;;;;5033964;28;20120;-56
2021/09/18 06:43:39;;;;;;;5.20;4.68;;;;;;;;;;5032824;28;20056;-59
2021/09/18 06:46:05;;;;;;;6.82;5.72;;;;;;;;;;5032538;28;20028;-56
2021/09/18 06:48:30;;;;;;;5.97;5.47;;;;;;;;;;5030241;28;20108;-56
2021/09/18 06:50:55;;;;;;;5.78;5.25;;;;;;;;;;5032505;28;20122;-59
2021/09/18 06:53:21;;;;;;;6.68;5.10;;;;;;;;;;5031431;28;20024;-59
2021/09/18 06:55:46;;;;;;;5.47;4.78;;;;;;;;;;5033194;28;20029;-58
2021/09/18 06:58:11;;;;;;;6.25;5.60;;;;;;;;;;5029628;28;20628;-58
2021/09/18 07:00:37;;;;;;;5.13;4.55;;;;;;;;;;5034888;28;20047;-56
2021/09/18 07:03:02;;;;;;;4.60;4.20;;;;;;;;;;5032697;28;20026;-58
2021/09/18 07:05:27;;;;;;;4.03;3.72;;;;;;;;;;5035969;28;20134;-58
2021/09/18 07:07:52;;;;;;;9.75;4.75;;;;;;;;;;5034980;28;20013;-57
2021/09/18 07:10:18;;;;;;;4.10;3.75;;;;;;;;;;5034531;28;20381;-58
2021/09/18 07:12:43;;;;;;;4.53;4.13;;;;;;;;;;5033763;28;20029;-56
2021/09/18 07:15:09;;;;;;;4.30;4.00;;;;;;;;;;5032315;28;20447;-58
2021/09/18 07:17:34;;;;;;;4.60;4.18;;;;;;;;;;5032123;28;20097;-57
2021/09/18 07:20:01;;;;;;;4.43;4.13;;;;;;;;;;5034846;28;20133;-58
2021/09/18 07:22:26;;;;;;;4.78;4.35;;;;;;;;;;5034296;28;20018;-59
2021/09/18 07:24:52;;;;;;;6.20;4.20;;;;;;;;;;5035872;28;20024;-59
2021/09/18 07:27:17;;;;;;;4.53;4.15;;;;;;;;;;5032006;28;20029;-62
2021/09/18 07:29:46;;;;;;;4.78;4.20;;;;;;;;;;5034673;28;20036;-62
2021/09/18 07:32:12;;;;;;;4.07;3.78;;;;;;;;;;5032380;28;20022;-60
2021/09/18 07:34:37;;;;;;;4.72;4.25;;;;;;;;;;5033455;28;20033;-56
2021/09/18 07:37:03;;;;;;;4.18;3.70;;;;;;;;;;5033651;28;20509;-59
2021/09/18 07:39:29;;;;;;;4.38;4.07;;;;;;;;;;5032524;28;20120;-59
2021/09/18 07:41:54;;;;;;;4.38;4.07;;;;;;;;;;5037133;28;20091;-60
2021/09/18 07:44:20;;;;;;;4.35;4.03;;;;;;;;;;5031643;28;20025;-57
2021/09/18 07:46:45;;;;;;;4.43;4.13;;;;;;;;;;5028728;28;20533;-59
2021/09/18 07:49:10;;;;;;;4.32;4.03;;;;;;;;;;5029834;28;20021;-60
2021/09/18 07:51:36;;;;;;;4.68;4.38;;;;;;;;;;5032659;28;20017;-58
2021/09/18 07:54:01;;;;;;;3.88;3.55;;;;;;;;;;5032083;28;20016;-58
2021/09/18 07:56:26;;;;;;;4.25;3.95;;;;;;;;;;5031536;28;20017;-60
2021/09/18 07:58:54;;;;;;;7.50;4.10;;;;;;;;;;5032831;28;20037;-61
2021/09/18 08:01:20;;;;;;;4.75;4.00;;;;;;;;;;5034279;28;20036;-57
2021/09/18 08:03:45;;;;;;;6.03;3.80;;;;;;;;;;5032129;28;20393;-58
2021/09/18 08:06:10;;;;;;;3.80;3.55;;;;;;;;;;5031659;28;20049;-60
2021/09/18 08:08:35;;;;;;;4.35;3.95;;;;;;;;;;5033112;28;20033;-60
2021/09/18 08:11:01;;;;;;;4.93;4.38;;;;;;;;;;5032538;28;20021;-57
2021/09/18 08:13:26;;;;;;;4.25;3.88;;;;;;;;;;5033549;28;20609;-58
2021/09/18 08:15:52;;;;;;;3.67;3.38;;;;;;;;;;5030435;28;20018;-58
2021/09/18 08:18:17;;;;;;;4.70;4.30;;;;;;;;;;5033146;28;20520;-60
2021/09/18 08:20:42;;;;;;;4.55;3.72;;;;;;;;;;5031387;28;20028;-57
2021/09/18 08:23:07;;;;;;;4.07;3.78;;;;;;;;;;5036019;28;20477;-58
2021/09/18 08:25:33;;;;;;;4.03;3.42;;;;;;;;;;5035258;28;20029;-59
2021/09/18 08:27:58;;;;;;;4.05;3.38;;;;;;;;;;5036600;28;20029;-59
2021/09/18 08:30:24;;;;;;;4.28;3.88;;;;;;;;;;5035922;28;20027;-59
2021/09/18 08:32:49;;;;;;;4.00;3.50;;;;;;;;;;5035116;28;20029;-59
2021/09/18 08:35:14;;;;;;;4.22;3.83;;;;;;;;;;5034228;28;20045;-56
2021/09/18 08:37:39;;;;;;;3.80;3.50;;;;;;;;;;5034989;28;20478;-57
2021/09/18 08:40:05;;;;;;;4.05;3.60;;;;;;;;;;5033858;28;20033;-60
2021/09/18 08:42:31;;;;;;;3.67;3.38;;;;;;;;;;5036626;28;20029;-58
2021/09/18 08:44:56;;;;;;;5.07;3.90;;;;;;;;;;5036598;28;20071;-59
2021/09/18 08:47:23;;;;;;;4.00;3.60;;;;;;;;;;5035038;28;20390;-56
2021/09/18 08:49:48;;;;;;;4.63;3.50;;;;;;;;;;5036911;28;20522;-57
2021/09/18 08:52:13;;;;;;;3.60;3.38;;;;;;;;;;5036651;28;20018;-59
2021/09/18 08:54:39;;;;;;;3.97;3.08;;;;;;;;;;5034136;28;20049;-58
2021/09/18 08:57:05;;;;;;;4.80;3.25;;;;;;;;;;5035066;28;20536;-61
2021/09/18 08:59:30;;;;;;;3.83;3.53;;;;;;;;;;5036938;28;20024;-64
2021/09/18 09:02:15;;;;;;;3.55;2.97;;;;;;;;;;5037517;28;20112;-63
2021/09/18 09:04:41;;;;;;;4.22;3.40;;;;;;;;;;5036231;28;20021;-65
2021/09/18 09:07:07;;;;;;;4.45;4.05;;;;;;;;;;5037315;28;20455;-64
2021/09/18 09:09:53;;;;;;;3.70;3.40;;;;;;;;;;5035407;28;20124;-64
2021/09/18 09:12:47;;;;;;;3.25;3.00;;;;;;;;;;5037454;28;20772;-63
2021/09/18 09:15:20;;;;;;;3.72;3.42;;;;;;;;;;5031575;28;20037;-61
2021/09/18 09:17:51;;;;;;;5.10;3.90;;;;;;;;;;5035810;28;20021;-62
2021/09/18 09:20:27;;;;;;;3.60;3.30;;;;;;;;;;5035456;28;20057;-64
2021/09/18 09:22:53;;;;;;;4.13;3.22;;;;;;;;;;5036312;28;20038;-61
2021/09/18 09:25:25;;;;;;;3.92;3.10;;;;;;;;;;5034843;28;20389;-62
2021/09/18 09:27:51;;;;;;;4.13;3.72;;;;;;;;;;5037291;28;20056;-63
2021/09/18 09:30:46;;;;;;;3.25;3.00;;;;;;;;;;5034515;28;20029;-63
2021/09/18 09:33:12;;;;;;;3.55;3.25;;;;;;;;;;5023623;28;20075;-62
2021/09/18 09:35:37;;;;;;;6.82;3.25;;;;;;;;;;5035195;28;20574;-64
2021/09/18 09:38:03;;;;;;;3.67;3.38;;;;;;;;;;5035828;28;20595;-62
2021/09/18 09:40:40;;;;;;;3.90;3.60;;;;;;;;;;5036310;28;20500;-62
2021/09/18 09:43:07;;;;;;;3.67;3.38;;;;;;;;;;5035602;28;20021;-62
2021/09/18 09:45:33;;;;;;;3.72;3.17;;;;;;;;;;5033413;28;20104;-61
2021/09/18 09:48:03;;;;;;;2.65;2.45;;;;;;;;;;5035218;28;20048;-61
2021/09/18 09:50:28;;;;;;;3.42;3.22;;;;;;;;;;5036495;28;20021;-62
2021/09/18 09:52:56;;;;;;;2.95;2.75;;;;;;;;;;5035971;28;20446;-63
2021/09/18 09:55:21;;;;;;;3.63;3.03;;;;;;;;;;5035832;28;20021;-60
2021/09/18 09:57:56;;;;;;;3.28;2.97;;;;;;;;;;5035028;28;20145;-60
2021/09/18 10:00:21;;;;;;;2.90;2.50;;;;;;;;;;5036808;28;20382;-59
2021/09/18 10:02:46;;;;;;;2.97;2.78;;;;;;;;;;5033907;28;20032;-60
2021/09/18 10:05:13;;;;;;;3.80;2.92;;;;;;;;;;5035910;28;20029;-58
2021/09/18 10:07:39;;;;;;;3.00;2.80;;;;;;;;;;5036133;28;20531;-62
2021/09/18 10:10:05;;;;;;;3.90;2.60;;;;;;;;;;5034842;28;20041;-58
2021/09/18 10:12:31;;;;;;;2.72;2.53;;;;;;;;;;5033861;28;20363;-59
2021/09/18 10:14:57;;;;;;;3.67;3.38;;;;;;;;;;5032545;28;20027;-59
2021/09/18 10:17:23;;;;;;;3.55;3.25;;;;;;;;;;5035271;28;20814;-63
2021/09/18 10:25:32;;;;;;;3.00;2.80;;;;;;;;;;5036391;28;20032;-64
2021/09/18 10:28:09;;;;;;;2.75;2.35;;;;;;;;;;5035145;28;20026;-58
2021/09/18 10:30:40;;;;;;;2.85;2.65;;;;;;;;;;5034195;28;20094;-58
2021/09/18 10:33:06;;;;;;;3.28;2.95;;;;;;;;;;5032787;28;20032;-60
2021/09/18 10:35:32;;;;;;;4.68;2.70;;;;;;;;;;5031808;28;20052;-57
2021/09/18 10:38:17;;;;;;;2.78;2.58;;;;;;;;;;5030316;28;20036;-56
2021/09/18 10:40:52;;;;;;;5.32;2.95;;;;;;;;;;5032564;28;20016;-56
2021/09/18 10:43:17;;;;;;;;;;;;;;;;;;5032342;28;20381;-58
2021/09/18 10:45:43;;;;;;;3.67;2.92;;;;;;;;;;5031693;28;20324;-57
2021/09/18 10:48:28;;;;;;;3.72;2.65;;;;;;;;;;5033797;28;20469;-59
2021/09/18 10:50:53;;;;;;;3.05;2.78;;;;;;;;;;5031292;28;20094;-58
2021/09/18 10:53:19;;;;;;;3.85;2.40;;;;;;;;;;5033097;28;20036;-58
2021/09/18 10:55:50;;;;;;;2.75;2.50;;;;;;;;;;5030905;28;20035;-58
2021/09/18 10:58:16;;;;;;;2.50;2.30;;;;;;;;;;5031211;28;20026;-58
2021/09/18 11:00:43;;;;;;;2.47;2.38;;;;;;;;;;5030351;28;20479;-59
2021/09/18 11:03:09;;;;;;;2.20;2.10;;;;;;;;;;5030329;28;20404;-57
2021/09/18 11:05:37;;;;;;;2.40;2.30;;;;;;;;;;5033935;28;20030;-59
2021/09/18 11:08:14;;;;;;;2.53;2.42;;;;;;;;;;5034019;28;20029;-57
2021/09/18 11:10:45;;;;;;;2.53;2.22;;;;;;;;;;5033120;28;20385;-57
2021/09/18 11:13:11;;;;;;;2.13;2.03;;;;;;;;;;5034456;28;20040;-61
2021/09/18 11:15:42;;;;;;;3.35;2.33;;;;;;;;;;5032599;28;20340;-57
2021/09/18 11:18:13;;;;;;;2.88;2.10;;;;;;;;;;5031934;28;20159;-60
2021/09/18 11:20:39;;;;;;;2.03;1.92;;;;;;;;;;5032522;28;20044;-60
2021/09/18 11:23:05;;;;;;;2.47;2.33;;;;;;;;;;5032661;28;20033;-57
2021/09/18 11:25:34;;;;;;;2.45;2.17;;;;;;;;;;5031441;28;20341;-59
2021/09/18 11:28:01;;;;;;;2.30;2.10;;;;;;;;;;5033482;28;20116;-58
2021/09/18 11:30:45;;;;;;;2.30;2.20;;;;;;;;;;5031747;28;20393;-60
2021/09/18 11:33:11;;;;;;;1.90;1.80;;;;;;;;;;5032410;28;20029;-61
2021/09/18 11:35:37;;;;;;;2.00;1.90;;;;;;;;;;5033159;28;20061;-57
2021/09/18 11:38:04;;;;;;;2.55;2.33;;;;;;;;;;5033276;28;20029;-54
2021/09/18 11:40:31;;;;;;;2.00;1.90;;;;;;;;;;5033636;28;20393;-57
2021/09/18 11:42:56;;;;;;;2.22;2.10;;;;;;;;;;5031242;28;20489;-57
2021/09/18 11:45:23;;;;;;;2.67;2.03;;;;;;;;;;5031305;28;20261;-55
2021/09/18 11:47:50;;;;;;;2.47;2.38;;;;;;;;;;5030464;28;20477;-57
2021/09/18 11:50:35;;;;;;;2.70;2.50;;;;;;;;;;5031424;28;20454;-59
2021/09/18 11:53:02;;;;;;;2.65;2.50;;;;;;;;;;5028754;28;20030;-54
2021/09/18 11:55:36;;;;;;;2.50;2.30;;;;;;;;;;5036212;28;20350;-59
2021/09/18 11:58:01;;;;;;;2.42;2.33;;;;;;;;;;5034234;28;20033;-60
2021/09/18 12:00:26;;;;;;;2.47;2.38;;;;;;;;;;5036409;28;20478;-59
2021/09/18 12:02:55;;;;;;;2.15;2.05;;;;;;;;;;5036410;28;20111;-60
2021/09/18 12:05:20;;;;;;;2.50;2.40;;;;;;;;;;5036315;28;20044;-59
2021/09/18 12:07:46;;;;;;;3.50;3.20;;;;;;;;;;5036727;28;20536;-56
2021/09/18 12:10:15;;;;;;;2.78;2.58;;;;;;;;;;5034965;28;20105;-56
2021/09/18 12:12:40;;;;;;;2.97;2.70;;;;;;;;;;5036138;28;20061;-58
2021/09/18 12:15:06;;;;;;;2.35;2.25;;;;;;;;;;5041946;28;20056;-61
2021/09/18 12:17:36;;;;;;;2.50;2.30;;;;;;;;;;5037023;28;20119;-56
2021/09/18 12:20:02;;;;;;;2.22;2.13;;;;;;;;;;5035974;28;20064;-56
2021/09/18 12:22:27;;;;;;;3.67;3.00;;;;;;;;;;5036620;28;20057;-61
2021/09/18 12:24:53;;;;;;;3.35;3.05;;;;;;;;;;5036102;28;20032;-58
2021/09/18 12:27:22;;;;;;;3.63;3.33;;;;;;;;;;5036801;28;20033;-57
2021/09/18 12:30:03;;;;;;;3.40;3.08;;;;;;;;;;5035392;28;20028;-58
2021/09/18 12:32:28;;;;;;;2.95;2.67;;;;;;;;;;5035627;28;20029;-58
2021/09/18 12:35:05;;;;;;;2.78;2.58;;;;;;;;;;5035008;28;20485;-57
2021/09/18 12:37:31;;;;;;;3.40;3.10;;;;;;;;;;5035315;28;20090;-59
2021/09/18 12:40:07;;;;;;;3.58;3.28;;;;;;;;;;5035923;28;20036;-57
2021/09/18 12:42:32;;;;;;;2.97;2.75;;;;;;;;;;5035547;28;20037;-57
2021/09/18 12:44:58;;;;;;;3.63;3.33;;;;;;;;;;5035190;28;20029;-58
2021/09/18 12:47:24;;;;;;;5.13;3.17;;;;;;;;;;5034925;28;20033;-63
2021/09/18 12:49:49;;;;;;;3.33;3.10;;;;;;;;;;5035211;28;20537;-59
2021/09/18 12:52:14;;;;;;;3.58;3.28;;;;;;;;;;5034086;28;20018;-56
2021/09/18 12:54:44;;;;;;;3.97;3.15;;;;;;;;;;5035449;28;20403;-58
2021/09/18 12:57:09;;;;;;;4.22;3.13;;;;;;;;;;5035049;28;20025;-56
2021/09/18 12:59:41;;;;;;;4.57;3.20;;;;;;;;;;5034191;28;20028;-58
2021/09/18 13:02:06;;;;;;;5.35;3.67;;;;;;;;;;5035539;28;20048;-58
2021/09/18 13:04:32;;;;;;;3.85;3.45;;;;;;;;;;5033571;28;20875;-58
2021/09/18 13:07:02;;;;;;;6.20;4.18;;;;;;;;;;5035819;28;20032;-60
2021/09/18 13:09:31;;;;;;;3.97;3.55;;;;;;;;;;5033976;28;20525;-56
2021/09/18 13:12:08;;;;;;;3.97;3.67;;;;;;;;;;5037608;28;20021;-57
2021/09/18 13:14:34;;;;;;;4.20;3.53;;;;;;;;;;5034320;28;20116;-59
2021/09/18 13:17:07;;;;;;;4.07;3.78;;;;;;;;;;5036025;28;20056;-57
2021/09/18 13:19:52;;;;;;;3.60;3.40;;;;;;;;;;5033007;28;20037;-60
2021/09/18 13:22:19;;;;;;;3.58;3.28;;;;;;;;;;5037707;28;20035;-59
2021/09/18 13:24:45;;;;;;;2.78;2.58;;;;;;;;;;5034264;28;20022;-59
2021/09/18 13:27:10;;;;;;;3.55;3.20;;;;;;;;;;5033699;28;20112;-57
2021/09/18 13:29:36;;;;;;;3.67;3.38;;;;;;;;;;5034136;28;20025;-56
2021/09/18 13:32:01;;;;;;;3.53;2.90;;;;;;;;;;5033969;28;20079;-59
2021/09/18 13:34:26;;;;;;;3.70;3.40;;;;;;;;;;5035209;28;20114;-57
2021/09/18 13:36:52;;;;;;;3.22;3.03;;;;;;;;;;5034203;28;20069;-60
2021/09/18 13:39:17;;;;;;;3.35;3.05;;;;;;;;;;5034087;28;20040;-59
2021/09/18 13:41:42;;;;;;;3.70;3.40;;;;;;;;;;5034155;28;20613;-58
2021/09/18 13:44:08;;;;;;;3.05;2.83;;;;;;;;;;5036224;28;20591;-55
2021/09/18 13:46:33;;;;;;;3.83;2.85;;;;;;;;;;5033075;28;20025;-58
2021/09/18 13:48:58;;;;;;;4.65;3.30;;;;;;;;;;5034998;28;20495;-59
2021/09/18 13:51:24;;;;;;;3.22;3.03;;;;;;;;;;5033673;28;20025;-60
2021/09/18 13:53:50;;;;;;;3.38;3.17;;;;;;;;;;5036017;28;20025;-58
2021/09/18 13:56:15;;;;;;;4.60;3.22;;;;;;;;;;5033116;28;20017;-56
2021/09/18 13:58:42;;;;;;;5.00;4.47;;;;;;;;;;5033874;28;20744;-56
2021/09/18 14:01:07;;;;;;;4.13;3.83;;;;;;;;;;5033506;28;20472;-59
2021/09/18 14:03:33;;;;;;;5.35;4.85;;;;;;;;;;5034913;28;20456;-61
2021/09/18 14:05:59;;;;;;;4.50;4.10;;;;;;;;;;5034121;28;20025;-60
2021/09/18 14:08:24;;;;;;;4.20;3.90;;;;;;;;;;5035872;28;20032;-59
2021/09/18 14:10:50;;;;;;;4.03;3.83;;;;;;;;;;5036325;28;20021;-59
2021/09/18 14:13:15;;;;;;;4.13;3.78;;;;;;;;;;5033768;28;20036;-60
2021/09/18 14:15:41;;;;;;;4.63;4.22;;;;;;;;;;5032738;28;20497;-59
2021/09/18 14:18:07;;;;;;;4.70;4.35;;;;;;;;;;5034331;28;20128;-56
2021/09/18 14:20:32;;;;;;;4.45;4.05;;;;;;;;;;5033741;28;20025;-58
2021/09/18 14:22:58;;;;;;;4.75;4.35;;;;;;;;;;5032584;28;20473;-60
2021/09/18 14:25:25;;;;;;;5.45;4.07;;;;;;;;;;5031219;28;20365;-56
2021/09/18 14:27:50;;;;;;;5.32;4.93;;;;;;;;;;5033934;28;20449;-56
2021/09/18 14:30:15;;;;;;;5.53;4.65;;;;;;;;;;5033252;28;20164;-59
2021/09/18 14:32:41;;;;;;;5.40;4.55;;;;;;;;;;5041988;28;20025;-58
2021/09/18 14:35:06;;;;;;;6.57;5.97;;;;;;;;;;5030543;28;20025;-60
2021/09/18 14:37:32;;;;;;;6.90;6.28;;;;;;;;;;5034736;28;20049;-57
2021/09/18 14:39:57;;;;;;;7.00;6.32;;;;;;;;;;5031853;28;20033;-56
2021/09/18 14:42:22;;;;;;;5.93;5.43;;;;;;;;;;5032692;28;20384;-59
2021/09/18 14:44:48;;;;;;;5.82;5.32;;;;;;;;;;5032016;28;20107;-60